Historyczne dane pomiarowe

Dodano dane terminowe – wersja testowa.

Dane z okresu 1951-2019

Wersja bazy: 1.34 [2019-03-16, lista zmian], aktualizacja planowana na 2019-04-15

Dane meteo z obszaru Polski uzyskane na podstawie danych udostępnionych przez Instytut Meteorologii i Gospodarki Wodnej – Państwowy Instytut Badawczy.

 

Wybierz Datę:    

       

TemperaturaWilgotnośćWiatrCiśnienieOpadyŚniegCzas trwania zjawisk
 Stacja t tx tn tng RH VA  wxwx mslp ppp RRR   cm mm wxwxwxwxwxwxwx
1979-06-13 16.4 21.8 13.8- 88.0- 7.7 1.0---- 6.3------------
1979-06-14 14.6 18.0 12.9- 96.0- 8.0 3.0---- 15.8------------
1979-06-15 17.1 22.9 11.9- 78.0- 2.3 2.7---- 0.0------------
1979-06-16 17.7 20.6 13.1- 83.8- 3.3 2.3---- 0.0------------
1979-06-17 16.8 18.7 15.3- 77.5- 1.0 3.0---- 0.0------------
1979-06-18 14.4 17.7 8.6- 82.8- 1.7 3.7---- 0.0------------
1979-06-19 17.1 19.5 12.9- 56.0- 0.0 2.3---- 0.0------------
1979-06-20 17.2 20.2 11.2- 64.0- 0.7 1.7---- 0.0------------
1979-06-21 18.6 21.1 13.4- 65.0- 0.0 3.0---- 0.0------------
1979-06-22 18.6 24.4 12.9- 64.8- 6.3 1.3---- 0.1------------
1979-06-23 19.6 22.7 15.0- 68.0- 4.7 1.0---- 0.0------------
1979-06-24 23.1 29.0 17.0- 61.0- 0.3 4.0---- 0.0------------
1979-06-25 19.6 27.9 16.6- 73.0- 4.3 2.0---- 0.0------------
1979-06-26 18.3 26.1 10.8- 79.0- 5.7 2.3---- 17.2------------
1979-06-27 18.4 21.7 15.5- 71.0- 4.3 1.7---- 0.0------------
1979-06-28 16.7 19.2 12.8- 79.5- 3.3 2.3---- 0.0------------
1979-06-29 17.7 24.7 9.9- 66.3- 3.7 3.3---- 5.0------------
1979-06-30 14.8 20.5 11.2- 81.5- 6.0 5.0---- 1.2------------
1979-07-01 11.4 16.2 8.2- 79.3- 6.0 4.3---- 1.2------------
1979-07-02 12.9 16.5 8.8- 75.3- 6.0 5.0---- 0.0------------
1979-07-03 13.1 18.9 6.2- 76.8- 5.0 3.7---- 0.0------------
1979-07-04 14.6 18.0 8.8- 76.5- 2.0 2.7---- 0.0------------
1979-07-05 15.0 19.6 7.3- 79.5- 6.7 1.7---- 7.5------------
1979-07-06 15.0 18.7 12.5- 89.0- 8.0 4.7---- 3.2------------
1979-07-07 15.4 17.6 12.7- 83.5- 6.3 4.7---- 0.2------------
1979-07-08 15.2 17.7 12.5- 87.5- 8.0 2.0---- 2.6------------
1979-07-09 13.3 15.2 12.4- 93.0- 8.0 3.0---- 6.8------------
1979-07-10 15.1 18.9 13.1- 84.5- 7.0 3.7---- 1.0------------
1979-07-11 13.7 16.0 10.3- 80.8- 8.0 2.3---- 0.0------------
1979-07-12 14.2 18.5 4.1- 82.8- 0.3 5.3---- 5.3------------
233.3 ms

 

Źródłem pochodzenia danych jest Instytut Meteorologii i Gospodarki Wodnej – Państwowy Instytut Badawczy. Dane Instytutu Meteorologii i Gospodarki Wodnej – Państwowego Instytutu Badawczego zostały przetworzone.

Dane źródłowe można odnaleźć na stronie https://dane.imgw.pl